Time;durP1;ratioP1;P1;durP2;ratioP2;P2;SDS_P1;SDS_P2;PMS_P1;PMS_P2;Temp;Humidity;BMP_temperature;BMP_pressure;BME280_temperature;BME280_humidity;BME280_pressure;Samples;Min_cycle;Max_cycle;Signal;HPM_P1;HPM_P2
2023/09/09 00:01:48;;;;;;;8.32;6.10;;;;;;;;;;5034314;28;20021;-73
2023/09/09 00:04:13;;;;;;;11.20;6.75;;;;;;;;;;5052592;28;20021;-73
2023/09/09 00:06:40;;;;;;;9.10;6.07;;;;;;;;;;5034177;28;20111;-73
2023/09/09 00:09:06;;;;;;;14.68;6.60;;;;;;;;;;5034021;28;20025;-74
2023/09/09 00:11:32;;;;;;;8.18;6.22;;;;;;;;;;5033820;28;20063;-74
2023/09/09 00:13:58;;;;;;;11.20;6.00;;;;;;;;;;5051817;28;20138;-75
2023/09/09 00:16:23;;;;;;;14.45;9.50;;;;;;;;;;5033583;28;20107;-75
2023/09/09 00:18:52;;;;;;;11.18;7.68;;;;;;;;;;5033991;28;20029;-75
2023/09/09 00:21:18;;;;;;;9.65;6.95;;;;;;;;;;5033900;28;20039;-73
2023/09/09 00:23:44;;;;;;;10.23;7.30;;;;;;;;;;5033955;28;20025;-74
2023/09/09 00:26:09;;;;;;;8.85;7.43;;;;;;;;;;5051892;28;20144;-74
2023/09/09 00:28:35;;;;;;;11.15;6.80;;;;;;;;;;5049550;28;20040;-74
2023/09/09 00:31:01;;;;;;;11.95;7.03;;;;;;;;;;5051193;28;20028;-74
2023/09/09 00:33:27;;;;;;;10.40;7.13;;;;;;;;;;5017064;28;20191;-73
2023/09/09 00:35:52;;;;;;;10.68;6.72;;;;;;;;;;5051588;28;20059;-75
2023/09/09 00:38:20;;;;;;;13.85;7.40;;;;;;;;;;5033436;28;20037;-74
2023/09/09 00:41:10;;;;;;;13.73;6.82;;;;;;;;;;5017931;28;20544;-74
2023/09/09 00:43:39;;;;;;;11.80;6.82;;;;;;;;;;5033247;28;20017;-73
2023/09/09 00:46:08;;;;;;;10.70;7.43;;;;;;;;;;5033817;28;20029;-72
2023/09/09 00:48:36;;;;;;;12.23;7.05;;;;;;;;;;5033248;28;20091;-74
2023/09/09 00:51:04;;;;;;;12.23;7.65;;;;;;;;;;5050508;28;20041;-74
2023/09/09 00:53:32;;;;;;;10.55;7.47;;;;;;;;;;5051136;28;20021;-75
2023/09/09 00:56:01;;;;;;;11.13;7.40;;;;;;;;;;5033550;28;20027;-72
2023/09/09 00:58:29;;;;;;;10.88;7.18;;;;;;;;;;5050850;28;20044;-75
2023/09/09 01:00:55;;;;;;;12.60;7.60;;;;;;;;;;5033494;28;20028;-73
2023/09/09 01:03:22;;;;;;;14.85;7.18;;;;;;;;;;5033219;28;20071;-73
2023/09/09 01:05:49;;;;;;;11.77;7.63;;;;;;;;;;5050835;28;20039;-73
2023/09/09 01:08:27;;;;;;;11.40;7.65;;;;;;;;;;5016037;28;20036;-74
2023/09/09 01:10:54;;;;;;;11.23;7.32;;;;;;;;;;5032575;28;20055;-73
2023/09/09 01:13:21;;;;;;;10.88;7.15;;;;;;;;;;5032716;28;20029;-73
2023/09/09 01:15:47;;;;;;;17.05;7.57;;;;;;;;;;5050691;28;20025;-74
2023/09/09 01:18:13;;;;;;;10.52;7.30;;;;;;;;;;5050966;28;20416;-75
2023/09/09 01:20:43;;;;;;;11.85;6.97;;;;;;;;;;5032949;28;20029;-73
2023/09/09 01:23:09;;;;;;;10.85;7.05;;;;;;;;;;5050706;28;20029;-74
2023/09/09 01:25:36;;;;;;;11.93;7.72;;;;;;;;;;5032743;28;20021;-74
2023/09/09 01:28:02;;;;;;;11.27;6.72;;;;;;;;;;5032588;28;20040;-73
2023/09/09 01:30:28;;;;;;;10.88;7.93;;;;;;;;;;5032696;28;20021;-73
2023/09/09 01:32:54;;;;;;;9.80;7.22;;;;;;;;;;5050763;28;20029;-74
2023/09/09 01:35:22;;;;;;;11.18;7.28;;;;;;;;;;5032804;28;20365;-76
2023/09/09 01:37:49;;;;;;;14.00;9.23;;;;;;;;;;5033024;28;20025;-74
2023/09/09 01:40:16;;;;;;;10.50;7.65;;;;;;;;;;5053696;28;20050;-73
2023/09/09 01:42:42;;;;;;;15.07;7.82;;;;;;;;;;5037258;28;20017;-73
2023/09/09 01:45:08;;;;;;;12.57;7.90;;;;;;;;;;5037352;28;20032;-74
2023/09/09 01:47:34;;;;;;;11.20;6.75;;;;;;;;;;5055145;28;20025;-74
2023/09/09 01:49:59;;;;;;;10.25;7.28;;;;;;;;;;5055963;28;20029;-73
2023/09/09 01:52:25;;;;;;;9.05;6.95;;;;;;;;;;5056094;28;20036;-74
2023/09/09 01:54:51;;;;;;;10.63;7.47;;;;;;;;;;5055402;28;20059;-73
2023/09/09 01:57:19;;;;;;;14.48;8.65;;;;;;;;;;5055801;28;20167;-75
2023/09/09 01:59:45;;;;;;;10.98;8.95;;;;;;;;;;5055331;28;20033;-74
2023/09/09 02:02:15;;;;;;;10.20;7.53;;;;;;;;;;5036561;28;20047;-73
2023/09/09 02:04:42;;;;;;;13.27;7.63;;;;;;;;;;5054520;28;20111;-76
2023/09/09 02:07:08;;;;;;;10.20;6.88;;;;;;;;;;5053963;28;20055;-73
2023/09/09 02:09:34;;;;;;;14.70;8.45;;;;;;;;;;5036223;28;20024;-73
2023/09/09 02:12:03;;;;;;;11.73;8.07;;;;;;;;;;5036073;28;20029;-74
2023/09/09 02:14:29;;;;;;;9.85;7.53;;;;;;;;;;5054150;28;20021;-74
2023/09/09 02:16:54;;;;;;;13.70;8.10;;;;;;;;;;5054164;28;20032;-73
2023/09/09 02:19:20;;;;;;;10.93;8.63;;;;;;;;;;5035604;28;20445;-74
2023/09/09 02:21:46;;;;;;;11.30;6.93;;;;;;;;;;5035636;28;20517;-75
2023/09/09 02:24:12;;;;;;;12.88;7.68;;;;;;;;;;5035648;28;20082;-73
2023/09/09 02:26:37;;;;;;;9.95;7.80;;;;;;;;;;5035325;28;20040;-75
2023/09/09 02:29:03;;;;;;;10.75;7.38;;;;;;;;;;5035819;28;20036;-74
2023/09/09 02:31:29;;;;;;;17.40;8.07;;;;;;;;;;5035706;28;20039;-73
2023/09/09 02:33:57;;;;;;;14.60;8.00;;;;;;;;;;5035988;28;20025;-73
2023/09/09 02:36:23;;;;;;;15.70;8.05;;;;;;;;;;5035264;28;20029;-73
2023/09/09 02:38:49;;;;;;;13.45;7.82;;;;;;;;;;5035185;28;20040;-73
2023/09/09 02:41:14;;;;;;;11.13;7.85;;;;;;;;;;5053059;28;20028;-74
2023/09/09 02:43:41;;;;;;;12.45;7.68;;;;;;;;;;4994243;28;20445;-72
2023/09/09 02:46:07;;;;;;;12.52;8.02;;;;;;;;;;4978431;28;20572;-75
2023/09/09 02:48:33;;;;;;;11.32;7.65;;;;;;;;;;5010654;28;20045;-74
2023/09/09 02:50:59;;;;;;;11.77;7.70;;;;;;;;;;4993888;28;20556;-73
2023/09/09 02:53:24;;;;;;;11.23;7.75;;;;;;;;;;5011216;28;20088;-74
2023/09/09 02:55:50;;;;;;;20.27;9.27;;;;;;;;;;4994642;28;20149;-74
2023/09/09 02:58:16;;;;;;;11.55;8.02;;;;;;;;;;4994202;28;20157;-72
2023/09/09 03:00:42;;;;;;;12.48;7.80;;;;;;;;;;4993768;28;20026;-74
2023/09/09 03:03:08;;;;;;;10.82;8.13;;;;;;;;;;4978113;28;20034;-74
2023/09/09 03:05:35;;;;;;;11.80;8.68;;;;;;;;;;5010635;28;20541;-74
2023/09/09 03:08:02;;;;;;;12.07;7.57;;;;;;;;;;4994265;28;20041;-73
2023/09/09 03:10:28;;;;;;;15.55;8.27;;;;;;;;;;4994531;28;20029;-74
2023/09/09 03:12:56;;;;;;;11.38;7.93;;;;;;;;;;4994189;28;20137;-75
2023/09/09 03:15:23;;;;;;;11.63;8.05;;;;;;;;;;4993897;28;20641;-75
2023/09/09 03:17:49;;;;;;;11.38;7.38;;;;;;;;;;4994071;28;20026;-74
2023/09/09 03:20:15;;;;;;;11.85;8.10;;;;;;;;;;5016042;28;20086;-74
2023/09/09 03:22:41;;;;;;;14.63;8.20;;;;;;;;;;5018521;28;20036;-73
2023/09/09 03:25:27;;;;;;;14.27;8.25;;;;;;;;;;5034783;28;20025;-74
2023/09/09 03:27:53;;;;;;;14.63;7.85;;;;;;;;;;5033718;28;20495;-75
2023/09/09 03:30:20;;;;;;;11.20;8.18;;;;;;;;;;5035548;28;20024;-72
2023/09/09 03:32:45;;;;;;;10.27;7.30;;;;;;;;;;5035114;28;20123;-73
2023/09/09 03:35:11;;;;;;;12.30;7.88;;;;;;;;;;5038526;28;20068;-73
2023/09/09 03:37:37;;;;;;;13.45;7.90;;;;;;;;;;5045035;28;20037;-73
2023/09/09 03:40:05;;;;;;;14.13;8.57;;;;;;;;;;5045408;28;20028;-74
2023/09/09 03:42:32;;;;;;;13.80;7.85;;;;;;;;;;5045832;28;20021;-75
2023/09/09 03:44:59;;;;;;;12.07;9.32;;;;;;;;;;5046455;28;20039;-74
2023/09/09 03:47:25;;;;;;;14.52;8.57;;;;;;;;;;5041108;28;20021;-73
2023/09/09 03:49:53;;;;;;;12.07;8.82;;;;;;;;;;5052850;28;20104;-73
2023/09/09 03:52:19;;;;;;;14.52;8.90;;;;;;;;;;5053177;28;20023;-72
2023/09/09 03:54:45;;;;;;;9.88;7.47;;;;;;;;;;5052995;28;20028;-73
2023/09/09 03:57:11;;;;;;;11.45;7.88;;;;;;;;;;5052549;28;20053;-73
2023/09/09 03:59:37;;;;;;;9.30;7.45;;;;;;;;;;5052407;28;20025;-73
2023/09/09 04:02:02;;;;;;;13.15;8.63;;;;;;;;;;5034676;28;20385;-73
2023/09/09 04:04:28;;;;;;;12.65;8.25;;;;;;;;;;5035207;28;20069;-73
2023/09/09 04:06:54;;;;;;;11.35;7.28;;;;;;;;;;5034848;28;20021;-74
2023/09/09 04:09:26;;;;;;;14.00;7.70;;;;;;;;;;5051923;28;20035;-72
2023/09/09 04:11:51;;;;;;;;;;;;;;;;;;5034536;28;20025;-74
2023/09/09 04:14:17;;;;;;;10.73;8.25;;;;;;;;;;5033963;28;20259;-74
2023/09/09 04:16:43;;;;;;;14.95;8.02;;;;;;;;;;5051297;28;20028;-74
2023/09/09 04:19:09;;;;;;;14.90;8.43;;;;;;;;;;5033849;28;20496;-73
2023/09/09 04:21:35;;;;;;;12.38;7.82;;;;;;;;;;5033900;28;20039;-72
2023/09/09 04:24:01;;;;;;;10.82;7.40;;;;;;;;;;5033947;28;20025;-74
2023/09/09 04:26:26;;;;;;;13.90;7.93;;;;;;;;;;5034780;28;20075;-73
2023/09/09 04:28:52;;;;;;;15.13;7.82;;;;;;;;;;5052835;28;20485;-73
2023/09/09 04:31:17;;;;;;;18.02;8.60;;;;;;;;;;5031182;28;20021;-73
2023/09/09 04:33:43;;;;;;;10.35;8.02;;;;;;;;;;5015689;28;20021;-73
2023/09/09 04:36:10;;;;;;;10.73;7.68;;;;;;;;;;5033257;28;20104;-73
2023/09/09 04:38:36;;;;;;;11.43;8.48;;;;;;;;;;5015443;28;20168;-73
2023/09/09 04:41:02;;;;;;;11.05;7.18;;;;;;;;;;5033541;28;20057;-74
2023/09/09 04:43:27;;;;;;;10.63;7.32;;;;;;;;;;5015982;28;20407;-73
2023/09/09 04:45:55;;;;;;;10.65;7.43;;;;;;;;;;5035014;28;20029;-73
2023/09/09 04:48:21;;;;;;;12.82;8.13;;;;;;;;;;5016478;28;20044;-73
2023/09/09 04:50:47;;;;;;;12.02;8.32;;;;;;;;;;5015559;28;20029;-74
2023/09/09 04:53:12;;;;;;;13.02;8.65;;;;;;;;;;5015720;28;20033;-73
2023/09/09 04:55:38;;;;;;;14.13;8.75;;;;;;;;;;5039402;28;20025;-77
2023/09/09 04:58:10;;;;;;;12.77;8.82;;;;;;;;;;5033451;28;20125;-77
2023/09/09 05:00:36;;;;;;;;;;;;;;;;;;5016603;28;20060;-79
2023/09/09 05:03:02;;;;;;;11.07;7.45;;;;;;;;;;5016399;28;19909;-77
2023/09/09 05:05:29;;;;;;;13.20;8.48;;;;;;;;;;5015500;28;20377;-75
2023/09/09 05:07:58;;;;;;;10.70;8.10;;;;;;;;;;5033915;28;20025;-77
2023/09/09 05:10:26;;;;;;;14.38;8.75;;;;;;;;;;5015220;28;20437;-76
2023/09/09 05:12:53;;;;;;;10.30;7.40;;;;;;;;;;5015929;28;20029;-78
2023/09/09 05:15:19;;;;;;;10.52;8.15;;;;;;;;;;5032703;28;20029;-78
2023/09/09 05:17:45;;;;;;;11.95;8.65;;;;;;;;;;5033289;28;20079;-78
2023/09/09 05:20:11;;;;;;;13.32;8.30;;;;;;;;;;5014837;28;20029;-77
2023/09/09 05:22:37;;;;;;;21.05;8.45;;;;;;;;;;4998209;28;20049;-78
2023/09/09 05:25:04;;;;;;;13.45;9.30;;;;;;;;;;5014534;28;20429;-77
2023/09/09 05:27:30;;;;;;;12.27;8.25;;;;;;;;;;5014499;28;20034;-79
2023/09/09 05:29:56;;;;;;;10.60;8.10;;;;;;;;;;5014444;28;20087;-79
2023/09/09 05:32:22;;;;;;;12.25;8.63;;;;;;;;;;5015071;28;20029;-80
2023/09/09 05:34:47;;;;;;;16.58;8.88;;;;;;;;;;5014627;28;20059;-78
2023/09/09 05:37:13;;;;;;;15.35;8.70;;;;;;;;;;5014888;28;20086;-78
2023/09/09 05:39:39;;;;;;;13.38;8.90;;;;;;;;;;5032108;28;20038;-77
2023/09/09 05:42:06;;;;;;;20.92;9.60;;;;;;;;;;5014387;28;20025;-80
2023/09/09 05:44:34;;;;;;;16.60;8.75;;;;;;;;;;5032458;28;20031;-77
2023/09/09 05:47:00;;;;;;;12.60;8.75;;;;;;;;;;5032427;28;20029;-78
2023/09/09 05:49:26;;;;;;;12.75;9.20;;;;;;;;;;5033455;28;20044;-76
2023/09/09 05:51:52;;;;;;;12.75;8.27;;;;;;;;;;5032089;28;20088;-77
2023/09/09 05:54:18;;;;;;;14.55;8.98;;;;;;;;;;5032610;28;20029;-79
2023/09/09 05:56:43;;;;;;;10.05;8.13;;;;;;;;;;5032213;28;20025;-77
2023/09/09 05:59:10;;;;;;;15.43;8.68;;;;;;;;;;5032984;28;20045;-78
2023/09/09 06:01:36;;;;;;;12.60;8.73;;;;;;;;;;5032882;28;20053;-78
2023/09/09 06:04:01;;;;;;;13.30;9.02;;;;;;;;;;5032978;28;20032;-76
2023/09/09 06:06:27;;;;;;;15.70;9.02;;;;;;;;;;5014718;28;20048;-79
2023/09/09 06:08:53;;;;;;;15.48;10.00;;;;;;;;;;5014455;28;20067;-75
2023/09/09 06:11:19;;;;;;;14.00;10.07;;;;;;;;;;5014899;28;20112;-78
2023/09/09 06:13:46;;;;;;;14.00;8.77;;;;;;;;;;4998603;28;20049;-79
2023/09/09 06:16:11;;;;;;;21.17;14.43;;;;;;;;;;5032801;28;20030;-77
2023/09/09 06:18:39;;;;;;;35.55;12.63;;;;;;;;;;5029956;28;20032;-79
2023/09/09 06:21:04;;;;;;;18.63;9.15;;;;;;;;;;5034605;28;20024;-79
2023/09/09 06:23:30;;;;;;;18.88;9.32;;;;;;;;;;5034494;28;20115;-77
2023/09/09 06:25:56;;;;;;;13.32;8.55;;;;;;;;;;5036617;28;20143;-77
2023/09/09 06:28:21;;;;;;;11.85;7.25;;;;;;;;;;5039142;28;20029;-78
2023/09/09 06:30:47;;;;;;;13.65;8.98;;;;;;;;;;5057808;28;20029;-78
2023/09/09 06:33:13;;;;;;;12.90;8.07;;;;;;;;;;5059468;28;20025;-78
2023/09/09 06:35:51;;;;;;;14.27;8.35;;;;;;;;;;5046081;28;20034;-79
2023/09/09 06:38:17;;;;;;;9.90;7.68;;;;;;;;;;5046000;28;20033;-78
2023/09/09 06:40:44;;;;;;;14.48;8.93;;;;;;;;;;5011947;28;20069;-79
2023/09/09 06:43:11;;;;;;;11.07;8.80;;;;;;;;;;5024681;28;20125;-80
2023/09/09 06:45:37;;;;;;;12.32;8.20;;;;;;;;;;5021193;28;20034;-78
2023/09/09 06:48:06;;;;;;;13.68;8.82;;;;;;;;;;5021665;28;20045;-79
2023/09/09 06:50:32;;;;;;;15.63;9.18;;;;;;;;;;5040966;28;20137;-80
2023/09/09 06:52:58;;;;;;;15.50;8.15;;;;;;;;;;5043587;28;20036;-81
2023/09/09 06:55:24;;;;;;;13.55;8.73;;;;;;;;;;5036804;28;20120;-72
2023/09/09 06:57:49;;;;;;;14.10;9.25;;;;;;;;;;5032021;28;20045;-73
2023/09/09 07:00:16;;;;;;;12.23;8.45;;;;;;;;;;5032684;28;20057;-72
2023/09/09 07:02:43;;;;;;;17.90;9.68;;;;;;;;;;5030938;28;20057;-74
2023/09/09 07:05:16;;;;;;;16.02;9.77;;;;;;;;;;5029844;28;20064;-73
2023/09/09 07:07:42;;;;;;;12.65;9.07;;;;;;;;;;5032476;28;20446;-72
2023/09/09 07:10:08;;;;;;;12.63;9.20;;;;;;;;;;5017562;28;20037;-72
2023/09/09 07:12:34;;;;;;;16.05;9.20;;;;;;;;;;5033806;28;20052;-73
2023/09/09 07:15:00;;;;;;;20.30;10.55;;;;;;;;;;5033567;28;20489;-73
2023/09/09 07:17:25;;;;;;;17.98;8.95;;;;;;;;;;5033303;28;20115;-73
2023/09/09 07:19:50;;;;;;;13.32;8.70;;;;;;;;;;5051286;28;20028;-73
2023/09/09 07:22:16;;;;;;;15.45;9.52;;;;;;;;;;5051590;28;20123;-74
2023/09/09 07:24:42;;;;;;;21.05;8.88;;;;;;;;;;5033703;28;20524;-74
2023/09/09 07:27:08;;;;;;;19.67;9.45;;;;;;;;;;5051863;28;20035;-74
2023/09/09 07:29:33;;;;;;;13.32;9.20;;;;;;;;;;5033984;28;20049;-73
2023/09/09 07:31:59;;;;;;;14.90;8.52;;;;;;;;;;5017330;28;20052;-74
2023/09/09 07:34:25;;;;;;;14.65;8.70;;;;;;;;;;5033936;28;20393;-74
2023/09/09 07:36:51;;;;;;;23.35;9.57;;;;;;;;;;5034108;28;20464;-75
2023/09/09 07:39:17;;;;;;;15.52;8.93;;;;;;;;;;5034458;28;20116;-73
2023/09/09 07:41:42;;;;;;;14.38;9.20;;;;;;;;;;5034429;28;20119;-73
2023/09/09 07:44:08;;;;;;;15.50;8.90;;;;;;;;;;5035609;28;20477;-74
2023/09/09 07:46:35;;;;;;;14.00;8.82;;;;;;;;;;5053618;28;20033;-74
2023/09/09 07:49:02;;;;;;;18.13;9.48;;;;;;;;;;5054082;28;20597;-74
2023/09/09 07:51:28;;;;;;;15.43;8.57;;;;;;;;;;5037090;28;20028;-74
2023/09/09 07:53:54;;;;;;;16.55;9.05;;;;;;;;;;5035443;28;20033;-74
2023/09/09 07:56:19;;;;;;;15.95;10.10;;;;;;;;;;5037828;28;20098;-73
2023/09/09 07:58:45;;;;;;;12.65;8.55;;;;;;;;;;5040619;28;20049;-75
2023/09/09 08:01:11;;;;;;;18.80;9.13;;;;;;;;;;5056123;28;20105;-74
2023/09/09 08:03:36;;;;;;;15.65;9.43;;;;;;;;;;5034652;28;20179;-73
2023/09/09 08:06:06;;;;;;;13.90;8.52;;;;;;;;;;5033567;28;20591;-74
2023/09/09 08:08:35;;;;;;;15.57;9.30;;;;;;;;;;5033379;28;20025;-74
2023/09/09 08:11:03;;;;;;;15.77;8.85;;;;;;;;;;5033191;28;20032;-74
2023/09/09 08:13:28;;;;;;;13.60;8.30;;;;;;;;;;5017979;28;20041;-75
2023/09/09 08:15:54;;;;;;;13.52;8.57;;;;;;;;;;5051197;28;20051;-73
2023/09/09 08:18:20;;;;;;;17.88;8.77;;;;;;;;;;5032638;28;20028;-73
2023/09/09 08:20:50;;;;;;;15.95;9.15;;;;;;;;;;5051011;28;20061;-75
2023/09/09 08:23:16;;;;;;;19.27;8.88;;;;;;;;;;5048443;28;20037;-73
2023/09/09 08:25:41;;;;;;;14.27;7.65;;;;;;;;;;5032561;28;20055;-72
2023/09/09 08:28:07;;;;;;;13.55;8.52;;;;;;;;;;5032753;28;20040;-73
2023/09/09 08:30:32;;;;;;;15.13;8.73;;;;;;;;;;5032800;28;20029;-74
2023/09/09 08:32:58;;;;;;;15.27;8.93;;;;;;;;;;5032484;28;20572;-74
2023/09/09 08:35:24;;;;;;;15.75;9.13;;;;;;;;;;5032466;28;20123;-73
2023/09/09 08:37:50;;;;;;;18.00;8.88;;;;;;;;;;5049572;28;20067;-73
2023/09/09 08:40:16;;;;;;;15.10;8.77;;;;;;;;;;5032298;28;20183;-73
2023/09/09 08:43:06;;;;;;;17.50;9.27;;;;;;;;;;5050308;28;20033;-73
2023/09/09 08:45:58;;;;;;;17.92;8.95;;;;;;;;;;5031981;28;20025;-74
2023/09/09 08:48:27;;;;;;;14.98;9.82;;;;;;;;;;5032031;28;20110;-74
2023/09/09 08:50:55;;;;;;;16.08;8.77;;;;;;;;;;5031785;28;20436;-75
2023/09/09 08:53:21;;;;;;;11.98;8.70;;;;;;;;;;5032400;28;20488;-73
2023/09/09 08:55:47;;;;;;;16.27;10.05;;;;;;;;;;5032140;28;20154;-74
2023/09/09 08:58:14;;;;;;;14.93;7.82;;;;;;;;;;5032015;28;20492;-73
2023/09/09 09:00:39;;;;;;;13.63;7.95;;;;;;;;;;5049245;28;20029;-73
2023/09/09 09:03:05;;;;;;;14.73;8.25;;;;;;;;;;5049907;28;20104;-73
2023/09/09 09:05:33;;;;;;;15.68;8.68;;;;;;;;;;5050004;28;20465;-74
2023/09/09 09:08:02;;;;;;;15.27;8.55;;;;;;;;;;5031535;28;20033;-73
2023/09/09 09:10:28;;;;;;;15.02;8.07;;;;;;;;;;5031696;28;20094;-74
2023/09/09 09:12:54;;;;;;;12.80;8.13;;;;;;;;;;5031359;28;20400;-73
2023/09/09 09:15:21;;;;;;;13.05;8.32;;;;;;;;;;5031976;28;20087;-71
2023/09/09 09:17:46;;;;;;;10.80;7.47;;;;;;;;;;5031171;28;20055;-73
2023/09/09 09:20:31;;;;;;;15.82;6.72;;;;;;;;;;5031396;28;20473;-73
2023/09/09 09:23:00;;;;;;;8.00;5.78;;;;;;;;;;5050703;28;20100;-76
2023/09/09 09:25:27;;;;;;;6.93;5.30;;;;;;;;;;5029896;28;20493;-76
2023/09/09 09:27:56;;;;;;;9.20;6.47;;;;;;;;;;5032241;28;20029;-74
2023/09/09 09:30:24;;;;;;;13.40;7.60;;;;;;;;;;5032675;28;20025;-74
2023/09/09 09:32:54;;;;;;;10.13;7.53;;;;;;;;;;5032629;28;20025;-74
2023/09/09 09:35:35;;;;;;;13.95;7.60;;;;;;;;;;5033231;28;20115;-76
2023/09/09 09:38:17;;;;;;;10.95;6.80;;;;;;;;;;5052772;28;20025;-73
2023/09/09 09:40:44;;;;;;;10.75;6.93;;;;;;;;;;5052495;28;20495;-80
2023/09/09 09:43:20;;;;;;;8.35;5.53;;;;;;;;;;5035774;28;20272;-75
2023/09/09 09:45:46;;;;;;;8.98;6.25;;;;;;;;;;5051792;28;20025;-73
2023/09/09 09:48:26;;;;;;;8.20;5.82;;;;;;;;;;5052766;28;20037;-74
2023/09/09 09:50:53;;;;;;;8.55;5.07;;;;;;;;;;5070123;28;20086;-74
2023/09/09 09:53:19;;;;;;;7.18;4.82;;;;;;;;;;5052548;28;20033;-76
2023/09/09 09:55:46;;;;;;;8.25;4.63;;;;;;;;;;5050060;28;20075;-76
2023/09/09 09:58:14;;;;;;;7.72;5.82;;;;;;;;;;5033307;28;20137;-77
2023/09/09 10:00:40;;;;;;;8.75;4.85;;;;;;;;;;5033899;28;20104;-75
2023/09/09 10:03:09;;;;;;;6.80;4.75;;;;;;;;;;5054965;28;20473;-75
2023/09/09 10:05:38;;;;;;;7.05;5.00;;;;;;;;;;5022097;28;20031;-75
2023/09/09 10:08:36;;;;;;;8.88;4.78;;;;;;;;;;5020438;28;20895;-75
2023/09/09 10:11:10;;;;;;;7.82;5.50;;;;;;;;;;5040701;28;20020;-75
2023/09/09 10:13:40;;;;;;;8.70;4.43;;;;;;;;;;5056192;28;20113;-75
2023/09/09 10:16:06;;;;;;;4.38;3.97;;;;;;;;;;5076149;28;20028;-73
2023/09/09 10:18:35;;;;;;;9.15;5.63;;;;;;;;;;5078538;28;20179;-74
2023/09/09 10:21:04;;;;;;;7.03;4.82;;;;;;;;;;5059191;28;20031;-73
2023/09/09 10:23:31;;;;;;;6.90;4.25;;;;;;;;;;5045701;28;20494;-73
2023/09/09 10:25:57;;;;;;;5.60;4.72;;;;;;;;;;5045881;28;20499;-75
2023/09/09 10:28:25;;;;;;;8.77;4.50;;;;;;;;;;5053742;28;20029;-74
2023/09/09 10:30:55;;;;;;;6.78;4.60;;;;;;;;;;5036452;28;20032;-75
2023/09/09 10:33:22;;;;;;;5.55;4.40;;;;;;;;;;5036591;28;20021;-75
2023/09/09 10:35:50;;;;;;;7.90;4.95;;;;;;;;;;5054766;28;20036;-77
2023/09/09 10:38:18;;;;;;;6.55;4.90;;;;;;;;;;5054397;28;20100;-74
2023/09/09 10:40:46;;;;;;;6.68;4.13;;;;;;;;;;5035664;28;20040;-75
2023/09/09 10:43:12;;;;;;;5.72;4.85;;;;;;;;;;5036014;28;20036;-74
2023/09/09 10:45:43;;;;;;;8.95;5.57;;;;;;;;;;5035798;28;20036;-74
2023/09/09 10:48:13;;;;;;;15.73;6.03;;;;;;;;;;5053347;28;20059;-73
2023/09/09 10:50:42;;;;;;;10.13;5.20;;;;;;;;;;5053367;28;20102;-73
2023/09/09 10:53:19;;;;;;;9.57;5.13;;;;;;;;;;5053246;28;20029;-75
2023/09/09 10:55:48;;;;;;;6.75;5.03;;;;;;;;;;5053528;28;20338;-74
2023/09/09 10:58:30;;;;;;;10.73;5.72;;;;;;;;;;5053449;28;20056;-75
2023/09/09 11:00:58;;;;;;;11.45;6.68;;;;;;;;;;5035847;28;20025;-76
2023/09/09 11:03:27;;;;;;;8.82;5.88;;;;;;;;;;5053332;28;20036;-75
2023/09/09 11:06:04;;;;;;;6.15;4.80;;;;;;;;;;5035418;28;20025;-74
2023/09/09 11:08:36;;;;;;;8.40;4.72;;;;;;;;;;5051888;28;20035;-76
2023/09/09 11:11:11;;;;;;;7.82;4.68;;;;;;;;;;5034843;28;20094;-77
2023/09/09 11:13:41;;;;;;;5.45;4.55;;;;;;;;;;5034262;28;20029;-74
2023/09/09 11:16:41;;;;;;;4.95;4.40;;;;;;;;;;5018451;28;20029;-76
2023/09/09 11:19:13;;;;;;;6.63;4.43;;;;;;;;;;5035030;28;20032;-76
2023/09/09 11:21:52;;;;;;;9.02;4.68;;;;;;;;;;5035498;28;20354;-73
2023/09/09 11:24:21;;;;;;;8.50;5.03;;;;;;;;;;5018724;28;20037;-75
2023/09/09 11:26:51;;;;;;;7.68;4.90;;;;;;;;;;5020169;28;20068;-75
2023/09/09 11:29:18;;;;;;;8.70;4.72;;;;;;;;;;5038383;28;20025;-78
2023/09/09 11:31:45;;;;;;;6.95;4.43;;;;;;;;;;5056974;28;20817;-76
2023/09/09 11:34:11;;;;;;;5.40;4.10;;;;;;;;;;5038110;28;20033;-76
2023/09/09 11:36:37;;;;;;;6.28;4.80;;;;;;;;;;5038824;28;20025;-77
2023/09/09 11:39:03;;;;;;;6.20;4.25;;;;;;;;;;5056666;28;20409;-78
2023/09/09 11:41:31;;;;;;;4.55;4.05;;;;;;;;;;5039534;28;20031;-78
2023/09/09 11:44:04;;;;;;;7.18;4.25;;;;;;;;;;5037373;28;20021;-78
2023/09/09 11:46:36;;;;;;;9.43;4.53;;;;;;;;;;5038035;28;20025;-76
2023/09/09 11:49:05;;;;;;;5.05;4.15;;;;;;;;;;5022440;28;20024;-78
2023/09/09 11:51:33;;;;;;;6.43;4.05;;;;;;;;;;5022676;28;20029;-78
2023/09/09 11:53:59;;;;;;;5.82;4.00;;;;;;;;;;5040831;28;20453;-77
2023/09/09 11:56:26;;;;;;;6.35;3.80;;;;;;;;;;5023943;28;20062;-78
2023/09/09 11:58:53;;;;;;;5.78;3.90;;;;;;;;;;5027443;28;20064;-76
2023/09/09 12:01:20;;;;;;;4.30;3.78;;;;;;;;;;5031021;28;20136;-80
2023/09/09 12:03:49;;;;;;;7.65;4.85;;;;;;;;;;5046699;28;20067;-77
2023/09/09 12:06:16;;;;;;;6.28;3.92;;;;;;;;;;5029652;28;20457;-76
2023/09/09 12:08:42;;;;;;;6.03;4.45;;;;;;;;;;5044460;28;20092;-76
2023/09/09 12:11:11;;;;;;;5.88;3.95;;;;;;;;;;5055066;28;20029;-77
2023/09/09 12:13:38;;;;;;;7.47;4.95;;;;;;;;;;5038360;28;20063;-77
2023/09/09 12:16:08;;;;;;;5.00;3.85;;;;;;;;;;5021385;28;20052;-77
2023/09/09 12:18:36;;;;;;;5.60;4.15;;;;;;;;;;5036781;28;20067;-81
2023/09/09 12:21:13;;;;;;;9.13;5.05;;;;;;;;;;5056351;28;20047;-76
2023/09/09 12:23:41;;;;;;;8.65;4.30;;;;;;;;;;5038136;28;20032;-79
2023/09/09 12:26:11;;;;;;;7.25;4.70;;;;;;;;;;5038699;28;20021;-77
2023/09/09 12:28:42;;;;;;;8.20;3.95;;;;;;;;;;5056714;28;20033;-78
2023/09/09 12:31:11;;;;;;;6.18;3.90;;;;;;;;;;5037331;28;20020;-79
2023/09/09 12:33:44;;;;;;;7.18;5.50;;;;;;;;;;5036676;28;20370;-79
2023/09/09 12:36:17;;;;;;;9.20;5.70;;;;;;;;;;5038772;28;20120;-78
2023/09/09 12:38:46;;;;;;;5.40;3.90;;;;;;;;;;5038436;28;20029;-77
2023/09/09 12:41:18;;;;;;;6.30;4.07;;;;;;;;;;5039463;28;20044;-76
2023/09/09 12:43:55;;;;;;;10.38;4.40;;;;;;;;;;5039730;28;20032;-77
2023/09/09 12:46:27;;;;;;;7.55;4.50;;;;;;;;;;5042993;28;20036;-78
2023/09/09 12:48:57;;;;;;;6.10;4.22;;;;;;;;;;5068630;28;20029;-77
2023/09/09 12:51:26;;;;;;;5.28;3.97;;;;;;;;;;5043203;28;20108;-77
2023/09/09 12:53:54;;;;;;;5.10;4.13;;;;;;;;;;5054040;28;20032;-79
2023/09/09 12:56:19;;;;;;;4.88;4.18;;;;;;;;;;5002977;28;20090;-78
2023/09/09 12:58:46;;;;;;;8.45;5.25;;;;;;;;;;5035523;28;20045;-78
2023/09/09 13:01:15;;;;;;;6.72;3.90;;;;;;;;;;5019770;28;20033;-79
2023/09/09 13:03:41;;;;;;;8.00;4.00;;;;;;;;;;5035799;28;20028;-77
2023/09/09 13:06:08;;;;;;;6.18;4.10;;;;;;;;;;5037173;28;20027;-78
2023/09/09 13:08:35;;;;;;;6.75;3.92;;;;;;;;;;5037242;28;20052;-78
2023/09/09 13:11:03;;;;;;;5.43;3.55;;;;;;;;;;5019318;28;20048;-80
2023/09/09 13:13:29;;;;;;;4.95;3.85;;;;;;;;;;5037979;28;20036;-77
2023/09/09 13:15:56;;;;;;;5.88;4.10;;;;;;;;;;5040648;28;20025;-78
2023/09/09 13:18:22;;;;;;;5.03;4.30;;;;;;;;;;5039754;28;20031;-75
2023/09/09 13:20:48;;;;;;;6.15;4.15;;;;;;;;;;5034551;28;20071;-77
2023/09/09 13:23:17;;;;;;;5.68;3.78;;;;;;;;;;5053116;28;20350;-76
2023/09/09 13:25:43;;;;;;;6.20;4.25;;;;;;;;;;5052396;28;20040;-75
2023/09/09 13:28:09;;;;;;;7.03;4.30;;;;;;;;;;5034019;28;20029;-76
2023/09/09 13:30:35;;;;;;;10.23;4.40;;;;;;;;;;5050832;28;20025;-74
2023/09/09 13:33:02;;;;;;;7.18;4.03;;;;;;;;;;5033137;28;20111;-75
2023/09/09 13:35:28;;;;;;;7.70;3.97;;;;;;;;;;5033589;28;20074;-75
2023/09/09 13:37:54;;;;;;;7.55;4.65;;;;;;;;;;5054462;28;20041;-77
2023/09/09 13:40:22;;;;;;;5.55;4.07;;;;;;;;;;5036873;28;20021;-73
2023/09/09 13:42:48;;;;;;;4.43;3.58;;;;;;;;;;5036619;28;20025;-75
2023/09/09 13:45:17;;;;;;;8.25;4.40;;;;;;;;;;5054494;28;20519;-76
2023/09/09 13:47:43;;;;;;;7.78;4.57;;;;;;;;;;5020241;28;20029;-73
2023/09/09 13:50:10;;;;;;;6.90;4.32;;;;;;;;;;5054597;28;20025;-74
2023/09/09 13:52:36;;;;;;;5.93;4.60;;;;;;;;;;5055005;28;20026;-73
2023/09/09 13:55:03;;;;;;;6.18;4.78;;;;;;;;;;5055033;28;20051;-74
2023/09/09 13:57:32;;;;;;;9.00;4.13;;;;;;;;;;5054862;28;20099;-74
2023/09/09 13:59:58;;;;;;;6.80;3.92;;;;;;;;;;5054492;28;20029;-74
2023/09/09 14:02:25;;;;;;;15.23;4.50;;;;;;;;;;5036596;28;20037;-74
2023/09/09 14:04:51;;;;;;;7.00;4.75;;;;;;;;;;5054516;28;20139;-75
2023/09/09 14:07:17;;;;;;;11.68;5.13;;;;;;;;;;5054311;28;20035;-73
2023/09/09 14:09:43;;;;;;;6.75;4.38;;;;;;;;;;5036397;28;20025;-74
2023/09/09 14:12:09;;;;;;;8.20;4.43;;;;;;;;;;5035605;28;20057;-74
2023/09/09 14:14:36;;;;;;;5.97;4.30;;;;;;;;;;5036277;28;20111;-75
2023/09/09 14:17:03;;;;;;;5.38;3.70;;;;;;;;;;5035796;28;20465;-74
2023/09/09 14:19:30;;;;;;;8.63;3.83;;;;;;;;;;5053676;28;20040;-74
2023/09/09 14:21:56;;;;;;;5.32;3.25;;;;;;;;;;5035645;28;20024;-74
2023/09/09 14:24:21;;;;;;;9.55;3.70;;;;;;;;;;5035396;28;20021;-74
2023/09/09 14:26:47;;;;;;;5.90;3.60;;;;;;;;;;5035405;28;20125;-72
2023/09/09 14:29:13;;;;;;;9.57;3.72;;;;;;;;;;5053445;28;20021;-75
2023/09/09 14:31:39;;;;;;;5.35;3.45;;;;;;;;;;5035981;28;20017;-74
2023/09/09 14:34:04;;;;;;;5.38;4.28;;;;;;;;;;5053464;28;20079;-74
2023/09/09 14:36:31;;;;;;;6.47;4.55;;;;;;;;;;5035477;28;20481;-73
2023/09/09 14:38:56;;;;;;;9.10;4.30;;;;;;;;;;5053411;28;20027;-74